Terminal Aerodrome Forecast
Issued by NWS

Home | Current Version | Previous Version | Text Only | Print | Product List | Glossary On
Versions: 1 2 3 4 5 6 7 8 9 10 11 12 13 14 15 16 17 18 19 20
000
FTUS46 KLOX 292043 AAA
TAFVNY
TAF AMD
KVNY 292043Z 2921/3018 15005KT P6SM SCT028 BKN035
     FM292130 15010KT P6SM SCT030 SCT120
     FM300300 VRB05KT P6SM OVC020
     FM301100 VRB03KT P6SM OVC014=

USA.gov is the U.S. government's official web portal to all federal, state and local government web resources and services.